createdAt,value
2022-12-10T00:02:05.113Z,97339.88
2022-12-10T00:04:31.526Z,97341.63
2022-12-10T00:06:57.885Z,97341.91
2022-12-10T00:09:24.268Z,97340.44
2022-12-10T00:11:50.690Z,97350.06
2022-12-10T00:14:17.176Z,97347.19
2022-12-10T00:16:43.936Z,97341.16
2022-12-10T00:19:10.366Z,97334.22
2022-12-10T00:21:37.340Z,97339.13
2022-12-10T00:24:05.046Z,97334.25
2022-12-10T00:26:34.978Z,97337.78
2022-12-10T00:29:03.046Z,97335.28
2022-12-10T00:31:32.430Z,97340.28
2022-12-10T00:34:00.828Z,97342.31
2022-12-10T00:36:30.656Z,97338.91
2022-12-10T00:38:57.173Z,97337.44
2022-12-10T00:41:23.879Z,97341.28
2022-12-10T00:43:50.511Z,97344.81
2022-12-10T00:46:18.515Z,97350.81
2022-12-10T00:48:45.369Z,97344.34
2022-12-10T00:51:17.738Z,97344.72
2022-12-10T00:53:45.763Z,97348.25
2022-12-10T00:56:14.339Z,97353.97
2022-12-10T00:58:41.503Z,97356.91
2022-12-10T01:01:10.430Z,97351.47
2022-12-10T01:03:37.622Z,97346.31
2022-12-10T01:06:18.165Z,97356.00
2022-12-10T01:08:45.723Z,97355.47
2022-12-10T01:11:14.179Z,97356.56
2022-12-10T01:13:41.346Z,97355.00
2022-12-10T01:16:09.696Z,97353.59
2022-12-10T01:18:36.272Z,97356.31
2022-12-10T01:21:05.118Z,97359.09
2022-12-10T01:23:36.449Z,97368.81
2022-12-10T01:26:06.089Z,97363.81
2022-12-10T01:28:34.989Z,97368.59
2022-12-10T01:31:09.563Z,97365.06
2022-12-10T01:33:37.121Z,97366.56
2022-12-10T01:36:06.515Z,97369.31
2022-12-10T01:38:32.937Z,97372.50
2022-12-10T01:41:00.799Z,97375.38
2022-12-10T01:43:28.147Z,97374.63
2022-12-10T01:45:54.566Z,97377.09
2022-12-10T01:48:21.066Z,97375.81
2022-12-10T01:50:47.410Z,97378.38
2022-12-10T01:53:14.792Z,97380.72
2022-12-10T01:55:50.728Z,97374.25
2022-12-10T01:58:19.349Z,97381.81
2022-12-10T02:01:16.739Z,97382.41
2022-12-10T02:03:59.868Z,97373.69
2022-12-10T02:06:54.900Z,97375.72
2022-12-10T02:09:31.101Z,97372.63
2022-12-10T02:12:05.901Z,97369.75
2022-12-10T02:14:44.853Z,97373.84
2022-12-10T02:17:20.581Z,97371.09
2022-12-10T02:20:08.556Z,97366.19
2022-12-10T02:22:43.081Z,97365.47
2022-12-10T02:25:13.294Z,97370.47
2022-12-10T02:28:04.131Z,97367.50
2022-12-10T02:30:33.555Z,97359.59
2022-12-10T02:33:02.856Z,97364.31
2022-12-10T02:35:32.833Z,97361.16
2022-12-10T02:38:12.651Z,97366.53
2022-12-10T02:40:43.690Z,97365.41
2022-12-10T02:43:12.363Z,97359.19
2022-12-10T02:45:39.687Z,97366.69
2022-12-10T02:48:06.800Z,97363.50
2022-12-10T02:50:33.284Z,97368.66
2022-12-10T02:52:59.696Z,97365.41
2022-12-10T02:55:26.186Z,97363.91
2022-12-10T02:58:17.611Z,97372.03
2022-12-10T03:00:59.052Z,97370.09
2022-12-10T03:03:37.334Z,97363.81
2022-12-10T03:06:18.552Z,97367.31
2022-12-10T03:09:09.001Z,97366.56
2022-12-10T03:11:35.831Z,97371.38
2022-12-10T03:14:30.538Z,97368.78
2022-12-10T03:16:59.731Z,97369.59
2022-12-10T03:19:37.893Z,97365.34
2022-12-10T03:22:06.597Z,97379.16
2022-12-10T03:24:34.062Z,97375.41
2022-12-10T03:27:00.877Z,97374.81
2022-12-10T03:29:36.727Z,97371.19
2022-12-10T03:32:03.450Z,97381.19
2022-12-10T03:34:30.092Z,97388.72
2022-12-10T03:36:56.826Z,97381.84
2022-12-10T03:39:24.041Z,97380.84
2022-12-10T03:41:50.423Z,97381.50
2022-12-10T03:44:29.105Z,97381.28
2022-12-10T03:46:55.610Z,97386.09
2022-12-10T03:49:22.024Z,97389.06
2022-12-10T03:51:48.398Z,97389.97
2022-12-10T03:54:14.778Z,97390.91
2022-12-10T03:56:41.127Z,97382.22
2022-12-10T03:59:07.539Z,97380.66
2022-12-10T04:01:34.269Z,97378.72
2022-12-10T04:04:00.738Z,97375.09
2022-12-10T04:06:27.231Z,97373.44
2022-12-10T04:08:58.578Z,97374.44
2022-12-10T04:11:25.868Z,97382.25
2022-12-10T04:14:11.150Z,97378.53
2022-12-10T04:16:38.224Z,97382.66
2022-12-10T04:19:11.337Z,97389.59
2022-12-10T04:21:57.929Z,97386.38
2022-12-10T04:24:45.208Z,97384.34
2022-12-10T04:27:13.498Z,97381.66
2022-12-10T04:29:40.522Z,97380.06
2022-12-10T04:32:07.428Z,97382.00
2022-12-10T04:34:33.975Z,97386.28
2022-12-10T04:37:01.160Z,97380.19
2022-12-10T04:39:27.713Z,97380.00
2022-12-10T04:41:54.065Z,97379.34
2022-12-10T04:44:20.803Z,97382.09
2022-12-10T04:46:47.630Z,97375.47
2022-12-10T04:49:14.272Z,97378.41
2022-12-10T04:51:41.379Z,97375.75
2022-12-10T04:54:08.574Z,97381.75
2022-12-10T04:56:35.828Z,97379.44
2022-12-10T04:59:03.079Z,97382.69
2022-12-10T05:01:29.957Z,97377.75
2022-12-10T05:04:00.638Z,97379.53
2022-12-10T05:06:27.198Z,97371.13
2022-12-10T05:08:53.845Z,97367.59
2022-12-10T05:11:22.144Z,97373.91
2022-12-10T05:13:49.026Z,97377.41
2022-12-10T05:16:18.424Z,97377.50
2022-12-10T05:18:45.347Z,97377.50
2022-12-10T05:21:15.100Z,97379.34
2022-12-10T05:23:45.043Z,97378.34
2022-12-10T05:26:17.137Z,97373.34
2022-12-10T05:28:55.310Z,97370.56
2022-12-10T05:31:24.142Z,97367.88
2022-12-10T05:33:51.375Z,97375.00
2022-12-10T05:36:20.525Z,97377.97
2022-12-10T05:38:47.924Z,97382.41
2022-12-10T05:41:17.153Z,97384.16
2022-12-10T05:43:44.789Z,97388.13
2022-12-10T05:46:13.557Z,97394.97
2022-12-10T05:48:40.096Z,97393.72
2022-12-10T05:51:18.306Z,97385.81
2022-12-10T05:53:45.201Z,97392.22
2022-12-10T05:56:15.006Z,97392.78
2022-12-10T05:58:43.160Z,97387.88
2022-12-10T06:01:12.393Z,97386.56
2022-12-10T06:03:39.135Z,97386.13
2022-12-10T06:06:06.468Z,97386.03
2022-12-10T06:08:33.819Z,97382.81
2022-12-10T06:11:08.323Z,97388.97
2022-12-10T06:13:35.163Z,97387.16
2022-12-10T06:16:09.567Z,97389.63
2022-12-10T06:18:36.645Z,97385.66
2022-12-10T06:21:08.024Z,97397.69
2022-12-10T06:23:36.076Z,97389.25
2022-12-10T06:26:26.487Z,97393.63
2022-12-10T06:28:54.443Z,97398.31
2022-12-10T06:31:21.226Z,97397.88
2022-12-10T06:33:47.837Z,97402.41
2022-12-10T06:36:16.246Z,97396.47
2022-12-10T06:38:43.150Z,97402.47
2022-12-10T06:41:12.633Z,97407.88
2022-12-10T06:43:39.800Z,97419.31
2022-12-10T06:46:12.171Z,97416.09
2022-12-10T06:48:39.177Z,97413.59
2022-12-10T06:51:06.402Z,97417.09
2022-12-10T06:53:34.495Z,97414.59
2022-12-10T06:56:01.716Z,97417.03
2022-12-10T06:58:29.668Z,97420.25
2022-12-10T07:01:04.228Z,97417.66
2022-12-10T07:03:31.116Z,97426.00
2022-12-10T07:05:59.171Z,97431.00
2022-12-10T07:08:25.858Z,97427.19
2022-12-10T07:10:52.362Z,97429.94
2022-12-10T07:13:18.894Z,97425.25
2022-12-10T07:15:45.288Z,97430.53
2022-12-10T07:18:11.787Z,97427.44
2022-12-10T07:20:38.230Z,97425.97
2022-12-10T07:23:04.603Z,97430.03
2022-12-10T07:25:31.138Z,97429.22
2022-12-10T07:27:58.000Z,97432.19
2022-12-10T07:30:24.465Z,97437.44
2022-12-10T07:32:50.853Z,97442.63
2022-12-10T07:35:17.262Z,97438.66
2022-12-10T07:37:43.594Z,97440.22
2022-12-10T07:40:11.052Z,97434.00
2022-12-10T07:42:37.551Z,97441.41
2022-12-10T07:45:04.608Z,97445.66
2022-12-10T07:47:30.993Z,97439.66
2022-12-10T07:49:57.360Z,97442.44
2022-12-10T07:52:23.766Z,97445.19
2022-12-10T07:54:50.120Z,97450.19
2022-12-10T07:57:16.491Z,97459.38
2022-12-10T07:59:42.899Z,97447.44
2022-12-10T08:02:10.322Z,97450.28
2022-12-10T08:04:38.564Z,97454.84
2022-12-10T08:07:04.950Z,97446.50
2022-12-10T08:09:31.875Z,97457.63
2022-12-10T08:11:58.222Z,97452.25
2022-12-10T08:14:24.657Z,97452.53
2022-12-10T08:16:51.048Z,97456.41
2022-12-10T08:19:22.033Z,97457.88
2022-12-10T08:21:50.195Z,97453.00
2022-12-10T08:24:16.589Z,97459.38
2022-12-10T08:26:43.030Z,97463.78
2022-12-10T08:29:09.416Z,97459.09
2022-12-10T08:31:38.025Z,97466.41
2022-12-10T08:34:06.093Z,97464.00
2022-12-10T08:36:32.610Z,97460.94
2022-12-10T08:38:59.074Z,97463.19
2022-12-10T08:41:25.448Z,97461.44
2022-12-10T08:43:53.756Z,97464.09
2022-12-10T08:46:20.216Z,97466.97
2022-12-10T08:48:46.647Z,97471.53
2022-12-10T08:51:17.370Z,97466.16
2022-12-10T08:53:44.422Z,97470.69
2022-12-10T08:56:11.938Z,97470.75
2022-12-10T08:58:39.336Z,97468.25
2022-12-10T09:01:14.059Z,97479.00
2022-12-10T09:03:40.533Z,97481.59
2022-12-10T09:06:10.148Z,97480.03
2022-12-10T09:08:37.094Z,97486.69
2022-12-10T09:11:15.550Z,97487.13
2022-12-10T09:13:42.827Z,97486.38
2022-12-10T09:16:09.760Z,97487.97
2022-12-10T09:18:36.186Z,97488.53
2022-12-10T09:21:10.420Z,97490.28
2022-12-10T09:23:37.153Z,97485.94
2022-12-10T09:26:07.882Z,97485.75
2022-12-10T09:28:34.285Z,97485.03
2022-12-10T09:31:02.087Z,97487.31
2022-12-10T09:33:29.364Z,97474.63
2022-12-10T09:35:55.782Z,97478.53
2022-12-10T09:38:22.256Z,97487.53
2022-12-10T09:41:00.672Z,97485.50
2022-12-10T09:43:47.573Z,97483.84
2022-12-10T09:46:33.000Z,97475.78
2022-12-10T09:49:17.438Z,97481.50
2022-12-10T09:51:43.867Z,97484.53
2022-12-10T09:54:35.622Z,97482.25
2022-12-10T09:57:04.138Z,97480.03
2022-12-10T09:59:39.452Z,97473.44
2022-12-10T10:02:29.554Z,97474.66
2022-12-10T10:05:08.008Z,97481.69
2022-12-10T10:07:43.041Z,97469.84
2022-12-10T10:10:26.738Z,97471.31
2022-12-10T10:12:56.209Z,97471.13
2022-12-10T10:15:31.702Z,97475.03
2022-12-10T10:18:03.687Z,97471.44
2022-12-10T10:20:30.720Z,97470.94
2022-12-10T10:22:59.992Z,97470.94
2022-12-10T10:25:27.672Z,97478.44
2022-12-10T10:27:54.501Z,97473.25
2022-12-10T10:30:23.822Z,97470.13
2022-12-10T10:32:55.396Z,97470.69
2022-12-10T10:35:21.776Z,97467.91
2022-12-10T10:37:48.210Z,97471.69
2022-12-10T10:40:24.119Z,97469.19
2022-12-10T10:42:54.812Z,97467.91
2022-12-10T10:45:58.100Z,97461.78
2022-12-10T10:48:26.771Z,97458.28
2022-12-10T10:51:17.536Z,97450.50
2022-12-10T10:53:53.331Z,97461.50
2022-12-10T10:56:28.926Z,97462.78
2022-12-10T10:58:55.327Z,97462.69
2022-12-10T11:01:24.528Z,97453.28
2022-12-10T11:03:55.953Z,97453.56
2022-12-10T11:06:22.549Z,97460.47
2022-12-10T11:08:49.213Z,97458.34
2022-12-10T11:11:26.654Z,97460.31
2022-12-10T11:13:52.998Z,97459.38
2022-12-10T11:16:23.451Z,97463.25
2022-12-10T11:18:58.626Z,97456.25
2022-12-10T11:21:25.935Z,97458.44
2022-12-10T11:23:55.068Z,97463.06
2022-12-10T11:26:27.179Z,97461.22
2022-12-10T11:29:02.715Z,97464.28
2022-12-10T11:31:50.920Z,97462.25
2022-12-10T11:34:35.525Z,97460.22
2022-12-10T11:37:40.153Z,97461.69
2022-12-10T11:40:24.923Z,97456.25
2022-12-10T11:42:59.177Z,97460.22
2022-12-10T11:45:35.548Z,97466.41
2022-12-10T11:48:09.417Z,97459.75
2022-12-10T11:51:01.209Z,97460.13
2022-12-10T11:53:45.786Z,97462.72
2022-12-10T11:56:23.026Z,97464.09
2022-12-10T11:58:52.153Z,97461.50
2022-12-10T12:01:39.796Z,97462.31
2022-12-10T12:04:31.167Z,97465.28
2022-12-10T12:07:03.532Z,97467.63
2022-12-10T12:09:48.027Z,97465.13
2022-12-10T12:12:31.937Z,97461.47
2022-12-10T12:15:03.175Z,97468.63
2022-12-10T12:17:41.574Z,97464.28
2022-12-10T12:20:24.415Z,97463.53
2022-12-10T12:22:56.954Z,97470.63
2022-12-10T12:25:25.376Z,97457.22
2022-12-10T12:28:02.836Z,97464.16
2022-12-10T12:30:33.133Z,97468.06
2022-12-10T12:33:19.063Z,97465.47
2022-12-10T12:35:52.841Z,97468.06
2022-12-10T12:38:22.284Z,97457.06
2022-12-10T12:41:17.622Z,97459.06
2022-12-10T12:43:52.452Z,97452.28
2022-12-10T12:46:30.592Z,97457.94
2022-12-10T12:49:26.179Z,97455.88
2022-12-10T12:52:21.371Z,97457.66
2022-12-10T12:54:47.941Z,97451.81
2022-12-10T12:57:27.747Z,97448.44
2022-12-10T13:00:06.537Z,97450.06
2022-12-10T13:02:48.297Z,97444.16
2022-12-10T13:05:21.599Z,97450.53
2022-12-10T13:08:18.763Z,97464.38
2022-12-10T13:10:52.338Z,97458.34
2022-12-10T13:13:29.075Z,97456.66
2022-12-10T13:15:55.905Z,97464.38
2022-12-10T13:18:37.587Z,97459.91
2022-12-10T13:21:30.695Z,97470.63
2022-12-10T13:24:10.725Z,97477.31
2022-12-10T13:26:37.675Z,97467.22
2022-12-10T13:32:05.577Z,97477.16
2022-12-10T13:34:38.269Z,97482.63
2022-12-10T13:37:27.959Z,97480.56
2022-12-10T13:40:03.491Z,97472.22
2022-12-10T13:42:51.924Z,97483.06
2022-12-10T13:45:21.043Z,97481.94
2022-12-10T13:47:56.093Z,97483.28
2022-12-10T13:50:39.543Z,97495.09
2022-12-10T13:53:08.844Z,97491.69
2022-12-10T13:56:00.666Z,97495.13
2022-12-10T13:58:58.126Z,97496.38
2022-12-10T14:01:43.567Z,97507.16
2022-12-10T14:04:26.183Z,97503.63
2022-12-10T14:06:53.561Z,97496.94
2022-12-10T14:09:25.736Z,97506.13
2022-12-10T14:11:57.495Z,97512.50
2022-12-10T14:14:38.243Z,97509.00
2022-12-10T14:17:08.004Z,97513.44
2022-12-10T14:19:35.886Z,97506.50
2022-12-10T14:22:14.254Z,97509.00
2022-12-10T14:24:44.120Z,97514.34
2022-12-10T14:27:15.219Z,97509.34
2022-12-10T14:29:50.512Z,97518.06
2022-12-10T14:32:20.470Z,97512.69
2022-12-10T14:34:54.563Z,97516.47
2022-12-10T14:37:25.507Z,97508.78
2022-12-10T14:39:52.202Z,97520.00
2022-12-10T14:42:18.899Z,97511.63
2022-12-10T14:44:48.321Z,97516.81
2022-12-10T14:47:17.567Z,97522.56
2022-12-10T14:49:53.711Z,97523.94
2022-12-10T14:52:27.188Z,97522.75
2022-12-10T14:54:53.726Z,97526.31
2022-12-10T14:57:27.855Z,97527.16
2022-12-10T15:00:09.487Z,97534.47
2022-12-10T15:02:39.809Z,97531.03
2022-12-10T15:05:23.711Z,97535.75
2022-12-10T15:07:56.964Z,97538.53
2022-12-10T15:10:32.893Z,97546.59
2022-12-10T15:13:00.181Z,97538.88
2022-12-10T15:15:35.056Z,97540.34
2022-12-10T15:18:05.247Z,97537.22
2022-12-10T15:20:53.149Z,97535.16
2022-12-10T15:23:28.623Z,97541.75
2022-12-10T15:25:58.096Z,97542.47
2022-12-10T15:28:30.890Z,97539.88
2022-12-10T15:31:30.971Z,97546.03
2022-12-10T15:34:14.109Z,97539.94
2022-12-10T15:36:49.907Z,97534.34
2022-12-10T15:39:31.009Z,97537.59
2022-12-10T15:42:05.197Z,97540.94
2022-12-10T15:44:32.772Z,97542.03
2022-12-10T15:47:28.717Z,97541.91
2022-12-10T15:49:56.797Z,97547.72
2022-12-10T15:52:29.611Z,97551.56
2022-12-10T15:54:57.816Z,97553.63
2022-12-10T15:57:25.524Z,97551.19
2022-12-10T15:59:52.965Z,97553.91
2022-12-10T16:02:31.578Z,97557.78
2022-12-10T16:04:58.232Z,97565.50
2022-12-10T16:07:24.609Z,97566.88
2022-12-10T16:09:50.950Z,97570.28
2022-12-10T16:12:18.327Z,97569.44
2022-12-10T16:14:50.989Z,97577.69
2022-12-10T16:17:18.296Z,97572.63
2022-12-10T16:19:44.647Z,97573.41
2022-12-10T16:22:10.997Z,97583.00
2022-12-10T16:24:40.743Z,97591.63
2022-12-10T16:27:15.245Z,97588.13
2022-12-10T16:29:44.552Z,97592.63
2022-12-10T16:33:42.624Z,97594.66
2022-12-10T16:36:11.883Z,97596.75
2022-12-10T16:38:39.249Z,97590.00
2022-12-10T16:41:15.429Z,97590.81
2022-12-10T16:43:41.938Z,97598.03
2022-12-10T16:46:11.382Z,97596.28
2022-12-10T16:48:37.969Z,97600.31
2022-12-10T16:51:11.500Z,97594.81
2022-12-10T16:53:38.027Z,97596.69
2022-12-10T16:56:05.174Z,97596.47
2022-12-10T16:58:31.627Z,97592.84
2022-12-10T17:00:57.988Z,97598.09
2022-12-10T17:03:26.425Z,97596.81
2022-12-10T17:05:57.110Z,97595.19
2022-12-10T17:08:25.463Z,97600.94
2022-12-10T17:11:11.709Z,97598.69
2022-12-10T17:13:39.866Z,97603.56
2022-12-10T17:16:07.174Z,97610.09
2022-12-10T17:18:35.622Z,97612.00
2022-12-10T17:21:02.660Z,97617.44
2022-12-10T17:23:29.123Z,97614.28
2022-12-10T17:25:55.706Z,97609.50
2022-12-10T17:28:23.243Z,97609.69
2022-12-10T17:30:50.036Z,97610.22
2022-12-10T17:33:21.747Z,97606.59
2022-12-10T17:35:50.350Z,97605.72
2022-12-10T17:38:23.005Z,97612.63
2022-12-10T17:40:50.030Z,97610.53
2022-12-10T17:43:17.624Z,97610.38
2022-12-10T17:45:44.763Z,97607.53
2022-12-10T17:48:16.929Z,97601.44
2022-12-10T17:50:45.670Z,97599.44
2022-12-10T17:53:16.549Z,97605.19
2022-12-10T17:55:48.716Z,97607.00
2022-12-10T17:58:16.213Z,97601.88
2022-12-10T18:00:44.647Z,97597.06
2022-12-10T18:03:13.299Z,97605.41
2022-12-10T18:05:40.540Z,97605.94
2022-12-10T18:08:07.503Z,97608.47
2022-12-10T18:10:35.775Z,97610.03
2022-12-10T18:13:02.731Z,97614.19
2022-12-10T18:15:31.843Z,97615.25
2022-12-10T18:18:00.300Z,97612.22
2022-12-10T18:20:35.178Z,97613.22
2022-12-10T18:23:02.873Z,97614.25
2022-12-10T18:25:29.498Z,97612.47
2022-12-10T18:28:08.115Z,97615.34
2022-12-10T18:30:40.275Z,97615.81
2022-12-10T18:33:10.107Z,97624.03
2022-12-10T18:35:37.158Z,97624.66
2022-12-10T18:38:03.742Z,97608.78
2022-12-10T18:40:30.648Z,97612.69
2022-12-10T18:43:06.355Z,97621.88
2022-12-10T18:45:35.443Z,97616.03
2022-12-10T18:48:03.621Z,97610.94
2022-12-10T18:50:30.416Z,97619.38
2022-12-10T18:52:59.239Z,97615.38
2022-12-10T18:55:26.179Z,97611.94
2022-12-10T18:58:04.404Z,97609.09
2022-12-10T19:00:35.559Z,97602.75
2022-12-10T19:03:03.545Z,97602.53
2022-12-10T19:05:30.789Z,97607.69
2022-12-10T19:07:57.186Z,97613.91
2022-12-10T19:10:24.716Z,97612.19
2022-12-10T19:12:51.678Z,97615.38
2022-12-10T19:15:19.977Z,97609.63
2022-12-10T19:17:47.243Z,97606.31
2022-12-10T19:20:16.394Z,97611.31
2022-12-10T19:22:43.207Z,97609.16
2022-12-10T19:25:10.421Z,97612.28
2022-12-10T19:27:38.770Z,97603.22
2022-12-10T19:30:07.764Z,97606.47
2022-12-10T19:32:34.198Z,97601.28
2022-12-10T19:35:00.767Z,97603.03
2022-12-10T19:37:28.064Z,97618.78
2022-12-10T19:39:54.532Z,97615.16
2022-12-10T19:42:21.317Z,97615.03
2022-12-10T19:44:47.694Z,97616.66
2022-12-10T19:47:17.807Z,97624.34
2022-12-10T19:49:44.261Z,97623.31
2022-12-10T19:52:10.672Z,97626.09
2022-12-10T19:54:37.078Z,97633.84
2022-12-10T19:57:03.530Z,97640.94
2022-12-10T19:59:29.967Z,97635.41
2022-12-10T20:01:56.382Z,97640.53
2022-12-10T20:04:22.839Z,97635.53
2022-12-10T20:06:49.558Z,97635.16
2022-12-10T20:09:21.515Z,97643.00
2022-12-10T20:11:48.627Z,97633.72
2022-12-10T20:14:15.105Z,97650.91
2022-12-10T20:16:42.801Z,97643.63
2022-12-10T20:19:12.607Z,97645.50
2022-12-10T20:21:39.002Z,97639.19
2022-12-10T20:24:06.187Z,97640.03
2022-12-10T20:26:36.130Z,97639.19
2022-12-10T20:29:06.225Z,97638.97
2022-12-10T20:31:32.736Z,97641.88
2022-12-10T20:33:59.292Z,97647.66
2022-12-10T20:36:27.592Z,97650.28
2022-12-10T20:38:54.195Z,97641.72
2022-12-10T20:41:21.267Z,97638.91
2022-12-10T20:43:47.827Z,97650.16
2022-12-10T20:46:17.360Z,97647.75
2022-12-10T20:48:44.070Z,97646.75
2022-12-10T20:51:10.835Z,97644.88
2022-12-10T20:53:39.116Z,97653.97
2022-12-10T20:56:11.576Z,97646.59
2022-12-10T20:58:38.056Z,97646.97
2022-12-10T21:01:04.577Z,97647.59
2022-12-10T21:03:31.398Z,97649.44
2022-12-10T21:05:57.837Z,97641.94
2022-12-10T21:08:24.402Z,97645.59
2022-12-10T21:10:59.728Z,97640.19
2022-12-10T21:13:29.030Z,97636.41
2022-12-10T21:15:58.700Z,97638.78
2022-12-10T21:18:26.191Z,97643.84
2022-12-10T21:20:53.518Z,97636.00
2022-12-10T21:23:22.641Z,97651.06
2022-12-10T21:25:49.009Z,97640.31
2022-12-10T21:28:15.398Z,97640.88
2022-12-10T21:30:44.833Z,97641.50
2022-12-10T21:33:11.264Z,97652.03
2022-12-10T21:35:37.671Z,97652.31
2022-12-10T21:38:07.453Z,97642.53
2022-12-10T21:40:33.981Z,97642.47
2022-12-10T21:43:18.852Z,97639.56
2022-12-10T21:45:55.051Z,97639.56
2022-12-10T21:48:24.537Z,97651.41
2022-12-10T21:51:01.486Z,97650.41
2022-12-10T21:53:28.516Z,97655.31
2022-12-10T21:55:55.423Z,97650.63
2022-12-10T21:58:22.325Z,97654.31
2022-12-10T22:00:58.185Z,97651.56
2022-12-10T22:03:25.632Z,97648.56
2022-12-10T22:05:52.545Z,97650.31
2022-12-10T22:08:19.328Z,97646.78
2022-12-10T22:10:50.150Z,97649.81
2022-12-10T22:13:18.609Z,97645.16
2022-12-10T22:15:46.666Z,97642.66
2022-12-10T22:18:14.110Z,97628.53
2022-12-10T22:20:41.747Z,97636.97
2022-12-10T22:23:12.096Z,97632.78
2022-12-10T22:25:42.949Z,97635.75
2022-12-10T22:28:09.554Z,97642.66
2022-12-10T22:30:36.632Z,97641.94
2022-12-10T22:33:03.784Z,97643.19
2022-12-10T22:35:30.280Z,97643.19
2022-12-10T22:37:56.880Z,97642.81
2022-12-10T22:40:23.296Z,97648.53
2022-12-10T22:42:50.557Z,97653.31
2022-12-10T22:45:18.743Z,97648.72
2022-12-10T22:47:45.811Z,97652.66
2022-12-10T22:50:12.630Z,97659.91
2022-12-10T22:52:39.103Z,97653.75
2022-12-10T22:55:06.184Z,97644.59
2022-12-10T22:57:33.546Z,97663.63
2022-12-10T22:59:59.938Z,97652.34
2022-12-10T23:02:26.331Z,97655.22
2022-12-10T23:04:52.781Z,97653.81
2022-12-10T23:07:19.795Z,97650.38
2022-12-10T23:09:46.476Z,97650.88
2022-12-10T23:12:31.795Z,97644.44
2022-12-10T23:14:58.335Z,97647.66
2022-12-10T23:17:25.206Z,97647.16
2022-12-10T23:19:51.907Z,97649.56
2022-12-10T23:22:18.611Z,97638.69
2022-12-10T23:24:45.053Z,97638.19
2022-12-10T23:27:11.557Z,97636.31
2022-12-10T23:29:38.110Z,97630.03
2022-12-10T23:32:05.440Z,97632.59
2022-12-10T23:34:36.122Z,97631.19
2022-12-10T23:37:03.322Z,97623.84
2022-12-10T23:39:29.953Z,97628.44
2022-12-10T23:41:56.338Z,97629.47
2022-12-10T23:44:26.064Z,97624.97
2022-12-10T23:46:52.532Z,97622.22
2022-12-10T23:49:19.096Z,97624.31
2022-12-10T23:51:45.605Z,97632.03
2022-12-10T23:54:12.182Z,97633.66
2022-12-10T23:56:39.590Z,97628.69
2022-12-10T23:59:05.976Z,97616.59
